sensor_id;sensor_type;location;lat;lon;timestamp;temperature;humidity
10722;DHT22;5412;59.450;18.124;2023-04-24T00:00:05;8.20;99.90
10722;DHT22;5412;59.450;18.124;2023-04-24T00:02:32;8.10;99.90
10722;DHT22;5412;59.450;18.124;2023-04-24T00:04:58;8.20;99.90
10722;DHT22;5412;59.450;18.124;2023-04-24T00:07:28;8.20;99.90
10722;DHT22;5412;59.450;18.124;2023-04-24T00:09:54;8.20;99.90
10722;DHT22;5412;59.450;18.124;2023-04-24T00:12:20;8.20;99.90
10722;DHT22;5412;59.450;18.124;2023-04-24T00:14:46;8.20;99.90
10722;DHT22;5412;59.450;18.124;2023-04-24T00:17:12;8.20;99.90
10722;DHT22;5412;59.450;18.124;2023-04-24T00:19:38;8.10;99.90
10722;DHT22;5412;59.450;18.124;2023-04-24T00:22:04;8.10;99.90
10722;DHT22;5412;59.450;18.124;2023-04-24T00:24:29;8.00;99.90
10722;DHT22;5412;59.450;18.124;2023-04-24T00:26:55;7.90;99.90
10722;DHT22;5412;59.450;18.124;2023-04-24T00:29:21;7.80;99.90
10722;DHT22;5412;59.450;18.124;2023-04-24T00:31:47;7.70;99.90
10722;DHT22;5412;59.450;18.124;2023-04-24T00:34:12;7.60;99.90
10722;DHT22;5412;59.450;18.124;2023-04-24T00:36:38;7.70;99.90
10722;DHT22;5412;59.450;18.124;2023-04-24T00:39:04;7.70;99.90
10722;DHT22;5412;59.450;18.124;2023-04-24T00:41:30;7.70;99.90
10722;DHT22;5412;59.450;18.124;2023-04-24T00:43:56;7.50;99.90
10722;DHT22;5412;59.450;18.124;2023-04-24T00:46:22;7.40;99.90
10722;DHT22;5412;59.450;18.124;2023-04-24T00:48:47;7.30;99.90
10722;DHT22;5412;59.450;18.124;2023-04-24T00:51:13;7.30;99.90
10722;DHT22;5412;59.450;18.124;2023-04-24T00:53:39;7.20;99.90
10722;DHT22;5412;59.450;18.124;2023-04-24T00:56:05;7.20;99.90
10722;DHT22;5412;59.450;18.124;2023-04-24T00:58:31;7.20;99.90
10722;DHT22;5412;59.450;18.124;2023-04-24T01:00:57;7.20;99.90
10722;DHT22;5412;59.450;18.124;2023-04-24T01:03:26;7.20;99.90
10722;DHT22;5412;59.450;18.124;2023-04-24T01:05:54;7.20;99.90
10722;DHT22;5412;59.450;18.124;2023-04-24T01:08:26;7.20;99.90
10722;DHT22;5412;59.450;18.124;2023-04-24T01:10:52;7.30;99.90
10722;DHT22;5412;59.450;18.124;2023-04-24T01:13:19;7.10;99.90
10722;DHT22;5412;59.450;18.124;2023-04-24T01:15:45;7.10;99.90
10722;DHT22;5412;59.450;18.124;2023-04-24T01:18:11;7.00;99.90
10722;DHT22;5412;59.450;18.124;2023-04-24T01:20:39;6.90;99.90
10722;DHT22;5412;59.450;18.124;2023-04-24T01:23:06;7.00;99.90
10722;DHT22;5412;59.450;18.124;2023-04-24T01:25:32;6.90;99.90
10722;DHT22;5412;59.450;18.124;2023-04-24T01:27:58;7.00;99.90
10722;DHT22;5412;59.450;18.124;2023-04-24T01:30:25;7.20;99.90
10722;DHT22;5412;59.450;18.124;2023-04-24T01:32:51;7.20;99.90
10722;DHT22;5412;59.450;18.124;2023-04-24T01:35:17;7.20;99.90
10722;DHT22;5412;59.450;18.124;2023-04-24T01:37:43;7.30;99.90
10722;DHT22;5412;59.450;18.124;2023-04-24T01:40:09;7.30;99.90
10722;DHT22;5412;59.450;18.124;2023-04-24T01:42:36;7.30;99.90
10722;DHT22;5412;59.450;18.124;2023-04-24T01:45:03;7.10;99.90
10722;DHT22;5412;59.450;18.124;2023-04-24T01:47:30;7.10;99.90
10722;DHT22;5412;59.450;18.124;2023-04-24T01:49:56;7.10;99.90
10722;DHT22;5412;59.450;18.124;2023-04-24T01:52:22;7.10;99.90
10722;DHT22;5412;59.450;18.124;2023-04-24T01:54:48;7.00;99.90
10722;DHT22;5412;59.450;18.124;2023-04-24T01:57:14;7.00;99.90
10722;DHT22;5412;59.450;18.124;2023-04-24T01:59:41;6.90;99.90
10722;DHT22;5412;59.450;18.124;2023-04-24T02:02:07;6.80;99.90
10722;DHT22;5412;59.450;18.124;2023-04-24T02:04:33;6.70;99.90
10722;DHT22;5412;59.450;18.124;2023-04-24T02:06:59;6.70;99.90
10722;DHT22;5412;59.450;18.124;2023-04-24T02:09:24;6.70;99.90
10722;DHT22;5412;59.450;18.124;2023-04-24T02:11:50;6.60;99.90
10722;DHT22;5412;59.450;18.124;2023-04-24T02:14:16;6.70;99.90
10722;DHT22;5412;59.450;18.124;2023-04-24T02:16:42;6.80;99.90
10722;DHT22;5412;59.450;18.124;2023-04-24T02:19:07;6.70;99.90
10722;DHT22;5412;59.450;18.124;2023-04-24T02:21:33;6.80;99.90
10722;DHT22;5412;59.450;18.124;2023-04-24T02:23:59;6.90;99.90
10722;DHT22;5412;59.450;18.124;2023-04-24T02:26:25;7.00;99.90
10722;DHT22;5412;59.450;18.124;2023-04-24T02:28:51;7.10;99.90
10722;DHT22;5412;59.450;18.124;2023-04-24T02:31:17;7.00;99.90
10722;DHT22;5412;59.450;18.124;2023-04-24T02:33:43;7.00;99.90
10722;DHT22;5412;59.450;18.124;2023-04-24T02:36:08;7.00;99.90
10722;DHT22;5412;59.450;18.124;2023-04-24T02:38:34;7.00;99.90
10722;DHT22;5412;59.450;18.124;2023-04-24T02:41:00;7.00;99.90
10722;DHT22;5412;59.450;18.124;2023-04-24T02:43:27;7.00;99.90
10722;DHT22;5412;59.450;18.124;2023-04-24T02:45:53;6.80;99.90
10722;DHT22;5412;59.450;18.124;2023-04-24T02:48:19;6.70;99.90
10722;DHT22;5412;59.450;18.124;2023-04-24T02:50:46;6.40;99.90
10722;DHT22;5412;59.450;18.124;2023-04-24T02:53:12;6.50;99.90
10722;DHT22;5412;59.450;18.124;2023-04-24T02:55:38;6.60;99.90
10722;DHT22;5412;59.450;18.124;2023-04-24T02:58:03;6.70;99.90
10722;DHT22;5412;59.450;18.124;2023-04-24T03:00:29;6.50;99.90
10722;DHT22;5412;59.450;18.124;2023-04-24T03:02:55;6.30;99.90
10722;DHT22;5412;59.450;18.124;2023-04-24T03:05:21;6.10;99.90
10722;DHT22;5412;59.450;18.124;2023-04-24T03:07:47;6.10;99.90
10722;DHT22;5412;59.450;18.124;2023-04-24T03:10:13;6.20;99.90
10722;DHT22;5412;59.450;18.124;2023-04-24T03:12:39;6.40;99.90
10722;DHT22;5412;59.450;18.124;2023-04-24T03:15:05;6.40;99.90
10722;DHT22;5412;59.450;18.124;2023-04-24T03:17:31;6.40;99.90
10722;DHT22;5412;59.450;18.124;2023-04-24T03:19:57;6.50;99.90
10722;DHT22;5412;59.450;18.124;2023-04-24T03:22:22;6.40;99.90
10722;DHT22;5412;59.450;18.124;2023-04-24T03:24:48;6.60;99.90
10722;DHT22;5412;59.450;18.124;2023-04-24T03:27:14;6.70;99.90
10722;DHT22;5412;59.450;18.124;2023-04-24T03:29:40;6.70;99.90
10722;DHT22;5412;59.450;18.124;2023-04-24T03:32:06;6.70;99.90
10722;DHT22;5412;59.450;18.124;2023-04-24T03:34:31;6.70;99.90
10722;DHT22;5412;59.450;18.124;2023-04-24T03:36:57;6.90;99.90
10722;DHT22;5412;59.450;18.124;2023-04-24T03:39:23;6.80;99.90
10722;DHT22;5412;59.450;18.124;2023-04-24T03:41:50;6.80;99.90
10722;DHT22;5412;59.450;18.124;2023-04-24T03:44:16;6.80;99.90
10722;DHT22;5412;59.450;18.124;2023-04-24T03:46:41;6.80;99.90
10722;DHT22;5412;59.450;18.124;2023-04-24T03:49:07;6.70;99.90
10722;DHT22;5412;59.450;18.124;2023-04-24T03:51:33;6.80;99.90
10722;DHT22;5412;59.450;18.124;2023-04-24T03:53:58;6.80;99.90
10722;DHT22;5412;59.450;18.124;2023-04-24T03:56:24;6.90;99.90
10722;DHT22;5412;59.450;18.124;2023-04-24T03:58:50;6.90;99.90
10722;DHT22;5412;59.450;18.124;2023-04-24T04:01:16;6.80;99.90
10722;DHT22;5412;59.450;18.124;2023-04-24T04:03:41;6.70;99.90
10722;DHT22;5412;59.450;18.124;2023-04-24T04:06:07;6.80;99.90
10722;DHT22;5412;59.450;18.124;2023-04-24T04:08:33;6.90;99.90
10722;DHT22;5412;59.450;18.124;2023-04-24T04:10:59;6.70;99.90
10722;DHT22;5412;59.450;18.124;2023-04-24T04:13:24;6.70;99.90
10722;DHT22;5412;59.450;18.124;2023-04-24T04:15:50;6.80;99.90
10722;DHT22;5412;59.450;18.124;2023-04-24T04:18:16;6.80;99.90
10722;DHT22;5412;59.450;18.124;2023-04-24T04:20:42;6.80;99.90
10722;DHT22;5412;59.450;18.124;2023-04-24T04:23:07;6.80;99.90
10722;DHT22;5412;59.450;18.124;2023-04-24T04:25:33;6.80;99.90
10722;DHT22;5412;59.450;18.124;2023-04-24T04:27:59;6.90;99.90
10722;DHT22;5412;59.450;18.124;2023-04-24T04:30:25;6.90;99.90
10722;DHT22;5412;59.450;18.124;2023-04-24T04:32:51;6.90;99.90
10722;DHT22;5412;59.450;18.124;2023-04-24T04:35:17;6.90;99.90
10722;DHT22;5412;59.450;18.124;2023-04-24T04:37:43;6.70;99.90
10722;DHT22;5412;59.450;18.124;2023-04-24T04:40:08;6.70;99.90
10722;DHT22;5412;59.450;18.124;2023-04-24T04:42:37;6.80;99.90
10722;DHT22;5412;59.450;18.124;2023-04-24T04:45:08;6.70;99.90
10722;DHT22;5412;59.450;18.124;2023-04-24T04:47:37;6.80;99.90
10722;DHT22;5412;59.450;18.124;2023-04-24T04:50:03;6.90;99.90
10722;DHT22;5412;59.450;18.124;2023-04-24T04:52:31;7.00;99.90
10722;DHT22;5412;59.450;18.124;2023-04-24T04:54:56;6.90;99.90
10722;DHT22;5412;59.450;18.124;2023-04-24T04:57:22;6.90;99.90
10722;DHT22;5412;59.450;18.124;2023-04-24T04:59:48;7.00;99.90
10722;DHT22;5412;59.450;18.124;2023-04-24T05:02:14;7.10;99.90
10722;DHT22;5412;59.450;18.124;2023-04-24T05:04:40;6.90;99.90
10722;DHT22;5412;59.450;18.124;2023-04-24T05:07:06;6.90;99.90
10722;DHT22;5412;59.450;18.124;2023-04-24T05:09:31;6.90;99.90
10722;DHT22;5412;59.450;18.124;2023-04-24T05:11:57;6.70;99.90
10722;DHT22;5412;59.450;18.124;2023-04-24T05:14:23;6.70;99.90
10722;DHT22;5412;59.450;18.124;2023-04-24T05:16:49;6.70;99.90
10722;DHT22;5412;59.450;18.124;2023-04-24T05:19:15;6.90;99.90
10722;DHT22;5412;59.450;18.124;2023-04-24T05:21:41;6.90;99.90
10722;DHT22;5412;59.450;18.124;2023-04-24T05:24:07;6.90;99.90
10722;DHT22;5412;59.450;18.124;2023-04-24T05:26:32;6.80;99.90
10722;DHT22;5412;59.450;18.124;2023-04-24T05:28:58;6.70;99.90
10722;DHT22;5412;59.450;18.124;2023-04-24T05:31:24;6.80;99.90
10722;DHT22;5412;59.450;18.124;2023-04-24T05:33:50;6.70;99.90
10722;DHT22;5412;59.450;18.124;2023-04-24T05:36:16;6.70;99.90
10722;DHT22;5412;59.450;18.124;2023-04-24T05:38:42;6.60;99.90
10722;DHT22;5412;59.450;18.124;2023-04-24T05:41:08;6.40;99.90
10722;DHT22;5412;59.450;18.124;2023-04-24T05:43:33;6.60;99.90
10722;DHT22;5412;59.450;18.124;2023-04-24T05:45:59;6.60;99.90
10722;DHT22;5412;59.450;18.124;2023-04-24T05:48:25;6.40;99.90
10722;DHT22;5412;59.450;18.124;2023-04-24T05:50:51;6.40;99.90
10722;DHT22;5412;59.450;18.124;2023-04-24T05:53:18;6.40;99.90
10722;DHT22;5412;59.450;18.124;2023-04-24T05:55:44;6.50;99.90
10722;DHT22;5412;59.450;18.124;2023-04-24T05:58:11;6.40;99.90
10722;DHT22;5412;59.450;18.124;2023-04-24T06:00:37;6.40;99.90
10722;DHT22;5412;59.450;18.124;2023-04-24T06:03:05;6.50;99.90
10722;DHT22;5412;59.450;18.124;2023-04-24T06:05:31;6.60;99.90
10722;DHT22;5412;59.450;18.124;2023-04-24T06:07:57;6.40;99.90
10722;DHT22;5412;59.450;18.124;2023-04-24T06:10:22;6.40;99.90
10722;DHT22;5412;59.450;18.124;2023-04-24T06:12:48;6.30;99.90
10722;DHT22;5412;59.450;18.124;2023-04-24T06:15:14;6.20;99.90
10722;DHT22;5412;59.450;18.124;2023-04-24T06:17:40;6.20;99.90
10722;DHT22;5412;59.450;18.124;2023-04-24T06:20:06;6.20;99.90
10722;DHT22;5412;59.450;18.124;2023-04-24T06:22:33;6.00;99.90
10722;DHT22;5412;59.450;18.124;2023-04-24T06:24:59;6.20;99.90
10722;DHT22;5412;59.450;18.124;2023-04-24T06:27:25;6.30;99.90
10722;DHT22;5412;59.450;18.124;2023-04-24T06:29:51;6.30;99.90
10722;DHT22;5412;59.450;18.124;2023-04-24T06:32:24;6.30;99.90
10722;DHT22;5412;59.450;18.124;2023-04-24T06:34:53;6.40;99.90
10722;DHT22;5412;59.450;18.124;2023-04-24T06:37:20;6.20;99.90
10722;DHT22;5412;59.450;18.124;2023-04-24T06:39:46;6.20;99.90
10722;DHT22;5412;59.450;18.124;2023-04-24T06:42:12;6.10;99.90
10722;DHT22;5412;59.450;18.124;2023-04-24T06:44:38;6.20;99.90
10722;DHT22;5412;59.450;18.124;2023-04-24T06:47:12;6.10;99.90
10722;DHT22;5412;59.450;18.124;2023-04-24T06:49:39;6.10;99.90
10722;DHT22;5412;59.450;18.124;2023-04-24T06:52:05;6.10;99.90
10722;DHT22;5412;59.450;18.124;2023-04-24T06:54:32;6.20;99.90
10722;DHT22;5412;59.450;18.124;2023-04-24T06:57:01;6.30;99.90
10722;DHT22;5412;59.450;18.124;2023-04-24T06:59:27;6.20;99.90
10722;DHT22;5412;59.450;18.124;2023-04-24T07:01:54;6.20;99.90
10722;DHT22;5412;59.450;18.124;2023-04-24T07:04:20;6.30;99.90
10722;DHT22;5412;59.450;18.124;2023-04-24T07:06:46;6.30;99.90
10722;DHT22;5412;59.450;18.124;2023-04-24T07:09:12;6.50;99.90
10722;DHT22;5412;59.450;18.124;2023-04-24T07:11:42;6.50;99.90
10722;DHT22;5412;59.450;18.124;2023-04-24T07:14:10;6.50;99.90
10722;DHT22;5412;59.450;18.124;2023-04-24T07:16:36;6.30;99.90
10722;DHT22;5412;59.450;18.124;2023-04-24T07:19:01;6.40;99.90
10722;DHT22;5412;59.450;18.124;2023-04-24T07:21:27;6.50;99.90
10722;DHT22;5412;59.450;18.124;2023-04-24T07:23:53;6.60;99.90
10722;DHT22;5412;59.450;18.124;2023-04-24T07:26:20;6.50;99.90
10722;DHT22;5412;59.450;18.124;2023-04-24T07:28:46;6.60;99.90
10722;DHT22;5412;59.450;18.124;2023-04-24T07:31:12;6.30;99.90
10722;DHT22;5412;59.450;18.124;2023-04-24T07:33:38;6.60;99.90
10722;DHT22;5412;59.450;18.124;2023-04-24T07:36:03;6.70;99.90
10722;DHT22;5412;59.450;18.124;2023-04-24T07:38:30;6.70;99.90
10722;DHT22;5412;59.450;18.124;2023-04-24T07:40:56;6.80;99.90
10722;DHT22;5412;59.450;18.124;2023-04-24T07:43:22;6.80;99.90
10722;DHT22;5412;59.450;18.124;2023-04-24T07:45:49;6.70;99.90
10722;DHT22;5412;59.450;18.124;2023-04-24T07:48:16;6.70;99.90
10722;DHT22;5412;59.450;18.124;2023-04-24T07:50:43;6.80;99.90
10722;DHT22;5412;59.450;18.124;2023-04-24T07:53:09;6.90;99.90
10722;DHT22;5412;59.450;18.124;2023-04-24T07:55:35;6.90;99.90
10722;DHT22;5412;59.450;18.124;2023-04-24T07:58:01;6.90;99.90
10722;DHT22;5412;59.450;18.124;2023-04-24T08:00:27;6.90;99.90
10722;DHT22;5412;59.450;18.124;2023-04-24T08:02:52;7.10;99.90
10722;DHT22;5412;59.450;18.124;2023-04-24T08:05:18;7.20;99.90
10722;DHT22;5412;59.450;18.124;2023-04-24T08:07:45;7.30;99.90
10722;DHT22;5412;59.450;18.124;2023-04-24T08:10:11;7.20;99.90
10722;DHT22;5412;59.450;18.124;2023-04-24T08:12:38;7.20;99.90
10722;DHT22;5412;59.450;18.124;2023-04-24T08:15:04;7.30;99.90
10722;DHT22;5412;59.450;18.124;2023-04-24T08:17:30;7.20;99.90
10722;DHT22;5412;59.450;18.124;2023-04-24T08:19:56;7.30;99.90
10722;DHT22;5412;59.450;18.124;2023-04-24T08:22:27;7.20;99.90
10722;DHT22;5412;59.450;18.124;2023-04-24T08:24:54;7.10;99.90
10722;DHT22;5412;59.450;18.124;2023-04-24T08:27:20;7.10;99.90
10722;DHT22;5412;59.450;18.124;2023-04-24T08:29:45;7.10;99.90
10722;DHT22;5412;59.450;18.124;2023-04-24T08:32:11;7.10;99.90
10722;DHT22;5412;59.450;18.124;2023-04-24T08:34:37;7.10;99.90
10722;DHT22;5412;59.450;18.124;2023-04-24T08:37:03;7.20;99.90
10722;DHT22;5412;59.450;18.124;2023-04-24T08:39:28;7.30;99.90
10722;DHT22;5412;59.450;18.124;2023-04-24T08:41:55;7.30;99.90
10722;DHT22;5412;59.450;18.124;2023-04-24T08:44:21;7.40;99.90
10722;DHT22;5412;59.450;18.124;2023-04-24T08:46:48;7.50;99.90
10722;DHT22;5412;59.450;18.124;2023-04-24T08:49:15;7.70;99.90
10722;DHT22;5412;59.450;18.124;2023-04-24T08:51:44;7.80;99.90
10722;DHT22;5412;59.450;18.124;2023-04-24T08:54:12;7.80;99.90
10722;DHT22;5412;59.450;18.124;2023-04-24T08:56:40;7.70;99.90
10722;DHT22;5412;59.450;18.124;2023-04-24T08:59:09;7.70;99.90
10722;DHT22;5412;59.450;18.124;2023-04-24T09:01:37;7.80;99.90
10722;DHT22;5412;59.450;18.124;2023-04-24T09:04:07;7.70;99.90
10722;DHT22;5412;59.450;18.124;2023-04-24T09:06:34;7.70;99.90
10722;DHT22;5412;59.450;18.124;2023-04-24T09:09:01;7.80;99.90
10722;DHT22;5412;59.450;18.124;2023-04-24T09:11:27;7.90;99.90
10722;DHT22;5412;59.450;18.124;2023-04-24T09:13:54;7.90;99.90
10722;DHT22;5412;59.450;18.124;2023-04-24T09:16:20;8.10;99.90
10722;DHT22;5412;59.450;18.124;2023-04-24T09:18:48;8.20;99.90
10722;DHT22;5412;59.450;18.124;2023-04-24T09:21:14;8.20;99.90
10722;DHT22;5412;59.450;18.124;2023-04-24T09:23:40;8.30;99.90
10722;DHT22;5412;59.450;18.124;2023-04-24T09:26:09;8.40;99.90
10722;DHT22;5412;59.450;18.124;2023-04-24T09:28:37;8.30;99.90
10722;DHT22;5412;59.450;18.124;2023-04-24T09:31:12;8.20;99.90
10722;DHT22;5412;59.450;18.124;2023-04-24T09:33:39;8.20;99.90
10722;DHT22;5412;59.450;18.124;2023-04-24T09:36:05;8.20;99.90
10722;DHT22;5412;59.450;18.124;2023-04-24T09:38:38;8.30;99.90
10722;DHT22;5412;59.450;18.124;2023-04-24T09:41:08;8.30;99.90
10722;DHT22;5412;59.450;18.124;2023-04-24T09:43:34;8.30;99.90
10722;DHT22;5412;59.450;18.124;2023-04-24T09:46:05;8.30;99.90
10722;DHT22;5412;59.450;18.124;2023-04-24T09:48:34;8.30;99.90
10722;DHT22;5412;59.450;18.124;2023-04-24T09:51:04;8.30;99.90
10722;DHT22;5412;59.450;18.124;2023-04-24T09:53:32;8.20;99.90
10722;DHT22;5412;59.450;18.124;2023-04-24T09:56:10;8.40;99.90
10722;DHT22;5412;59.450;18.124;2023-04-24T09:58:38;8.40;99.90
10722;DHT22;5412;59.450;18.124;2023-04-24T10:01:04;8.30;99.90
10722;DHT22;5412;59.450;18.124;2023-04-24T10:03:31;8.20;99.90
10722;DHT22;5412;59.450;18.124;2023-04-24T10:06:01;8.40;99.90
10722;DHT22;5412;59.450;18.124;2023-04-24T10:08:33;8.60;99.90
10722;DHT22;5412;59.450;18.124;2023-04-24T10:11:00;8.70;99.90
10722;DHT22;5412;59.450;18.124;2023-04-24T10:13:26;8.70;99.90
10722;DHT22;5412;59.450;18.124;2023-04-24T10:15:52;8.90;99.90
10722;DHT22;5412;59.450;18.124;2023-04-24T10:18:20;8.80;99.90
10722;DHT22;5412;59.450;18.124;2023-04-24T10:20:47;8.80;99.90
10722;DHT22;5412;59.450;18.124;2023-04-24T10:23:14;8.90;99.90
10722;DHT22;5412;59.450;18.124;2023-04-24T10:25:40;8.80;99.90
10722;DHT22;5412;59.450;18.124;2023-04-24T10:28:06;8.60;99.90
10722;DHT22;5412;59.450;18.124;2023-04-24T10:30:33;8.70;99.90
10722;DHT22;5412;59.450;18.124;2023-04-24T10:33:04;8.70;99.90
10722;DHT22;5412;59.450;18.124;2023-04-24T10:35:42;8.70;99.90
10722;DHT22;5412;59.450;18.124;2023-04-24T10:38:12;8.70;99.90
10722;DHT22;5412;59.450;18.124;2023-04-24T10:40:39;8.70;99.90
10722;DHT22;5412;59.450;18.124;2023-04-24T10:43:06;8.60;99.90
10722;DHT22;5412;59.450;18.124;2023-04-24T10:45:34;8.80;99.90
10722;DHT22;5412;59.450;18.124;2023-04-24T10:48:05;8.90;99.90
10722;DHT22;5412;59.450;18.124;2023-04-24T10:50:52;9.10;99.90
10722;DHT22;5412;59.450;18.124;2023-04-24T10:53:19;9.00;99.90
10722;DHT22;5412;59.450;18.124;2023-04-24T10:55:47;8.90;99.90
10722;DHT22;5412;59.450;18.124;2023-04-24T10:58:14;9.00;99.90
10722;DHT22;5412;59.450;18.124;2023-04-24T11:00:42;9.00;99.90
10722;DHT22;5412;59.450;18.124;2023-04-24T11:03:29;9.10;99.90
10722;DHT22;5412;59.450;18.124;2023-04-24T11:06:02;9.30;99.90
10722;DHT22;5412;59.450;18.124;2023-04-24T11:08:43;9.30;99.90
10722;DHT22;5412;59.450;18.124;2023-04-24T11:11:17;9.10;99.90
10722;DHT22;5412;59.450;18.124;2023-04-24T11:19:08;8.80;99.90
10722;DHT22;5412;59.450;18.124;2023-04-24T11:24:24;8.80;99.90
10722;DHT22;5412;59.450;18.124;2023-04-24T11:26:55;8.70;99.90
10722;DHT22;5412;59.450;18.124;2023-04-24T11:29:22;8.60;99.90
10722;DHT22;5412;59.450;18.124;2023-04-24T11:34:50;8.50;99.90
10722;DHT22;5412;59.450;18.124;2023-04-24T11:37:17;8.40;99.90
10722;DHT22;5412;59.450;18.124;2023-04-24T11:39:43;8.30;99.90
10722;DHT22;5412;59.450;18.124;2023-04-24T11:42:14;8.40;99.90
10722;DHT22;5412;59.450;18.124;2023-04-24T11:44:41;8.40;99.90
10722;DHT22;5412;59.450;18.124;2023-04-24T11:47:08;8.60;99.90
10722;DHT22;5412;59.450;18.124;2023-04-24T11:49:36;8.50;99.90
10722;DHT22;5412;59.450;18.124;2023-04-24T11:52:02;8.60;99.90
10722;DHT22;5412;59.450;18.124;2023-04-24T11:54:28;8.50;99.90
10722;DHT22;5412;59.450;18.124;2023-04-24T11:56:56;8.50;99.90
10722;DHT22;5412;59.450;18.124;2023-04-24T11:59:22;8.50;99.90
10722;DHT22;5412;59.450;18.124;2023-04-24T12:01:48;8.50;99.90
10722;DHT22;5412;59.450;18.124;2023-04-24T12:04:16;8.40;99.90
10722;DHT22;5412;59.450;18.124;2023-04-24T12:07:03;8.40;99.90
10722;DHT22;5412;59.450;18.124;2023-04-24T12:09:44;8.20;99.90
10722;DHT22;5412;59.450;18.124;2023-04-24T12:12:17;8.20;99.90
10722;DHT22;5412;59.450;18.124;2023-04-24T12:14:44;8.10;99.90
10722;DHT22;5412;59.450;18.124;2023-04-24T12:17:10;8.00;99.90
10722;DHT22;5412;59.450;18.124;2023-04-24T12:19:36;8.00;99.90
10722;DHT22;5412;59.450;18.124;2023-04-24T12:22:04;8.00;99.90
10722;DHT22;5412;59.450;18.124;2023-04-24T12:24:31;8.10;99.90
10722;DHT22;5412;59.450;18.124;2023-04-24T12:26:57;7.80;99.90
10722;DHT22;5412;59.450;18.124;2023-04-24T12:29:24;8.00;99.90
10722;DHT22;5412;59.450;18.124;2023-04-24T12:31:51;7.90;99.90
10722;DHT22;5412;59.450;18.124;2023-04-24T12:34:21;8.00;99.90
10722;DHT22;5412;59.450;18.124;2023-04-24T12:36:48;8.10;99.90
10722;DHT22;5412;59.450;18.124;2023-04-24T12:39:17;8.20;99.90
10722;DHT22;5412;59.450;18.124;2023-04-24T12:41:57;8.10;99.90
10722;DHT22;5412;59.450;18.124;2023-04-24T12:44:33;8.00;99.90
10722;DHT22;5412;59.450;18.124;2023-04-24T12:47:03;8.00;99.90
10722;DHT22;5412;59.450;18.124;2023-04-24T12:49:32;7.90;99.90
10722;DHT22;5412;59.450;18.124;2023-04-24T12:51:58;7.90;99.90
10722;DHT22;5412;59.450;18.124;2023-04-24T12:54:24;8.10;99.90
10722;DHT22;5412;59.450;18.124;2023-04-24T12:56:50;7.90;99.90
10722;DHT22;5412;59.450;18.124;2023-04-24T12:59:16;7.70;99.90
10722;DHT22;5412;59.450;18.124;2023-04-24T13:01:41;7.80;99.90
10722;DHT22;5412;59.450;18.124;2023-04-24T13:04:07;7.80;99.90
10722;DHT22;5412;59.450;18.124;2023-04-24T13:06:33;7.70;99.90
10722;DHT22;5412;59.450;18.124;2023-04-24T13:09:00;7.80;99.90
10722;DHT22;5412;59.450;18.124;2023-04-24T13:11:25;7.90;99.90
10722;DHT22;5412;59.450;18.124;2023-04-24T13:13:51;7.50;99.90
10722;DHT22;5412;59.450;18.124;2023-04-24T13:16:17;7.60;99.90
10722;DHT22;5412;59.450;18.124;2023-04-24T13:18:42;7.50;99.90
10722;DHT22;5412;59.450;18.124;2023-04-24T13:21:08;7.70;99.90
10722;DHT22;5412;59.450;18.124;2023-04-24T13:23:34;7.90;99.90
10722;DHT22;5412;59.450;18.124;2023-04-24T13:26:00;8.10;99.90
10722;DHT22;5412;59.450;18.124;2023-04-24T13:28:26;8.10;99.90
10722;DHT22;5412;59.450;18.124;2023-04-24T13:30:53;8.00;99.90
10722;DHT22;5412;59.450;18.124;2023-04-24T13:33:18;7.90;99.90
10722;DHT22;5412;59.450;18.124;2023-04-24T13:35:44;7.90;99.90
10722;DHT22;5412;59.450;18.124;2023-04-24T13:38:10;8.00;99.90
10722;DHT22;5412;59.450;18.124;2023-04-24T13:40:36;7.70;99.90
10722;DHT22;5412;59.450;18.124;2023-04-24T13:43:03;7.90;99.90
10722;DHT22;5412;59.450;18.124;2023-04-24T13:45:29;7.80;99.90
10722;DHT22;5412;59.450;18.124;2023-04-24T13:47:55;7.80;99.90
10722;DHT22;5412;59.450;18.124;2023-04-24T13:50:22;7.70;99.90
10722;DHT22;5412;59.450;18.124;2023-04-24T13:52:48;7.70;99.90
10722;DHT22;5412;59.450;18.124;2023-04-24T13:55:13;7.80;99.90
10722;DHT22;5412;59.450;18.124;2023-04-24T13:57:39;7.90;99.90
10722;DHT22;5412;59.450;18.124;2023-04-24T14:00:06;7.60;99.90
10722;DHT22;5412;59.450;18.124;2023-04-24T14:02:35;7.30;99.90
10722;DHT22;5412;59.450;18.124;2023-04-24T14:05:01;7.40;99.90
10722;DHT22;5412;59.450;18.124;2023-04-24T14:07:29;7.40;99.90
10722;DHT22;5412;59.450;18.124;2023-04-24T14:09:54;7.40;99.90
10722;DHT22;5412;59.450;18.124;2023-04-24T14:12:20;7.20;99.90
10722;DHT22;5412;59.450;18.124;2023-04-24T14:14:47;7.10;99.90
10722;DHT22;5412;59.450;18.124;2023-04-24T14:17:14;7.10;99.90
10722;DHT22;5412;59.450;18.124;2023-04-24T14:19:40;7.10;99.90
10722;DHT22;5412;59.450;18.124;2023-04-24T14:22:05;7.30;99.90
10722;DHT22;5412;59.450;18.124;2023-04-24T14:24:31;7.40;99.90
10722;DHT22;5412;59.450;18.124;2023-04-24T14:26:57;7.30;99.90
10722;DHT22;5412;59.450;18.124;2023-04-24T14:29:23;7.20;99.90
10722;DHT22;5412;59.450;18.124;2023-04-24T14:31:49;7.10;99.90
10722;DHT22;5412;59.450;18.124;2023-04-24T14:34:15;7.00;99.90
10722;DHT22;5412;59.450;18.124;2023-04-24T14:36:41;6.90;99.90
10722;DHT22;5412;59.450;18.124;2023-04-24T14:39:07;7.00;99.90
10722;DHT22;5412;59.450;18.124;2023-04-24T14:41:33;6.90;99.90
10722;DHT22;5412;59.450;18.124;2023-04-24T14:44:02;6.90;99.90
10722;DHT22;5412;59.450;18.124;2023-04-24T14:46:29;7.00;99.90
10722;DHT22;5412;59.450;18.124;2023-04-24T14:48:56;6.90;99.90
10722;DHT22;5412;59.450;18.124;2023-04-24T14:51:22;7.00;99.90
10722;DHT22;5412;59.450;18.124;2023-04-24T14:53:48;6.90;99.90
10722;DHT22;5412;59.450;18.124;2023-04-24T14:56:16;6.90;99.90
10722;DHT22;5412;59.450;18.124;2023-04-24T14:58:41;6.90;99.90
10722;DHT22;5412;59.450;18.124;2023-04-24T15:01:07;6.90;99.90
10722;DHT22;5412;59.450;18.124;2023-04-24T15:03:33;6.90;99.90
10722;DHT22;5412;59.450;18.124;2023-04-24T15:05:59;6.80;99.90
10722;DHT22;5412;59.450;18.124;2023-04-24T15:08:24;6.80;99.90
10722;DHT22;5412;59.450;18.124;2023-04-24T15:10:50;6.70;99.90
10722;DHT22;5412;59.450;18.124;2023-04-24T15:13:16;6.70;99.90
10722;DHT22;5412;59.450;18.124;2023-04-24T15:15:42;6.50;99.90
10722;DHT22;5412;59.450;18.124;2023-04-24T15:18:09;6.40;99.90
10722;DHT22;5412;59.450;18.124;2023-04-24T15:20:37;6.30;99.90
10722;DHT22;5412;59.450;18.124;2023-04-24T15:23:05;6.30;99.90
10722;DHT22;5412;59.450;18.124;2023-04-24T15:25:31;6.20;99.90
10722;DHT22;5412;59.450;18.124;2023-04-24T15:27:57;6.10;99.90
10722;DHT22;5412;59.450;18.124;2023-04-24T15:30:24;6.20;99.90
10722;DHT22;5412;59.450;18.124;2023-04-24T15:32:50;6.00;99.90
10722;DHT22;5412;59.450;18.124;2023-04-24T15:35:16;5.90;99.90
10722;DHT22;5412;59.450;18.124;2023-04-24T15:37:42;5.90;99.90
10722;DHT22;5412;59.450;18.124;2023-04-24T15:40:08;5.90;99.90
10722;DHT22;5412;59.450;18.124;2023-04-24T15:42:34;5.80;99.90
10722;DHT22;5412;59.450;18.124;2023-04-24T15:45:00;5.80;99.90
10722;DHT22;5412;59.450;18.124;2023-04-24T15:47:26;5.80;99.90
10722;DHT22;5412;59.450;18.124;2023-04-24T15:49:52;5.80;99.90
10722;DHT22;5412;59.450;18.124;2023-04-24T15:52:18;5.80;99.90